Terminal Aerodrome Forecast
Issued by NWS Louisville, KY

Home | Current Version | Previous Version | Text Only | Print | Product List | Glossary On
Versions: 1 2 3 4 5 6 7 8 9 10 11 12 13 14 15 16 17 18 19 20
206
FTUS43 KLMK 230217 AAA
TAFSDF
TAF AMD
KSDF 230217Z 2302/2406 22009KT P6SM FEW050 BKN250
     FM230600 VRB06KT P6SM VCTS SCT050CB BKN120
      TEMPO 2307/2311 2SM TSRA BKN040CB
     FM231200 25008KT P6SM SCT040 BKN060 PROB30 2320/2324 VRB15G25KT
      3SM -TSRA BKN040CB
     FM240000 VRB05KT P6SM SCT200=

USA.gov is the U.S. government's official web portal to all federal, state and local government web resources and services.